sensor_id;sensor_type;location;lat;lon;timestamp;pressure;altitude;pressure_sealevel;temperature
47484;BMP280;54076;50.322;18.650;2023-05-15T00:02:13;97288.95;;;8.46
47484;BMP280;54076;50.322;18.650;2023-05-15T00:07:15;97275.77;;;8.39
47484;BMP280;54076;50.322;18.650;2023-05-15T00:12:16;97274.74;;;8.54
47484;BMP280;54076;50.322;18.650;2023-05-15T00:17:17;97267.48;;;8.49
47484;BMP280;54076;50.322;18.650;2023-05-15T00:22:18;97253.35;;;8.59
47484;BMP280;54076;50.322;18.650;2023-05-15T00:27:19;97236.06;;;8.60
47484;BMP280;54076;50.322;18.650;2023-05-15T00:32:20;97228.92;;;8.72
47484;BMP280;54076;50.322;18.650;2023-05-15T00:37:22;97214.15;;;8.69
47484;BMP280;54076;50.322;18.650;2023-05-15T00:42:23;97205.70;;;8.67
47484;BMP280;54076;50.322;18.650;2023-05-15T00:47:25;97195.77;;;8.74
47484;BMP280;54076;50.322;18.650;2023-05-15T00:52:28;97188.00;;;8.60
47484;BMP280;54076;50.322;18.650;2023-05-15T00:57:30;97202.62;;;8.60
47484;BMP280;54076;50.322;18.650;2023-05-15T01:02:31;97195.20;;;8.51
47484;BMP280;54076;50.322;18.650;2023-05-15T01:07:43;97185.58;;;8.42
47484;BMP280;54076;50.322;18.650;2023-05-15T01:12:49;97172.27;;;8.44
47484;BMP280;54076;50.322;18.650;2023-05-15T01:17:51;97157.77;;;8.53
47484;BMP280;54076;50.322;18.650;2023-05-15T01:23:19;97163.02;;;8.52
47484;BMP280;54076;50.322;18.650;2023-05-15T01:28:45;97160.98;;;8.39
47484;BMP280;54076;50.322;18.650;2023-05-15T01:33:54;97159.65;;;8.35
47484;BMP280;54076;50.322;18.650;2023-05-15T01:38:58;97150.70;;;8.31
47484;BMP280;54076;50.322;18.650;2023-05-15T01:44:10;97155.60;;;8.32
47484;BMP280;54076;50.322;18.650;2023-05-15T01:49:18;97158.41;;;8.35
47484;BMP280;54076;50.322;18.650;2023-05-15T01:54:19;97150.59;;;8.30
47484;BMP280;54076;50.322;18.650;2023-05-15T01:59:22;97149.83;;;8.38
47484;BMP280;54076;50.322;18.650;2023-05-15T02:04:24;97145.59;;;8.33
47484;BMP280;54076;50.322;18.650;2023-05-15T02:09:26;97151.77;;;8.47
47484;BMP280;54076;50.322;18.650;2023-05-15T02:14:28;97149.88;;;8.48
47484;BMP280;54076;50.322;18.650;2023-05-15T02:19:29;97149.47;;;8.52
47484;BMP280;54076;50.322;18.650;2023-05-15T02:24:30;97149.16;;;8.46
47484;BMP280;54076;50.322;18.650;2023-05-15T02:36:08;97127.98;;;8.54
47484;BMP280;54076;50.322;18.650;2023-05-15T02:41:09;97123.20;;;8.47
47484;BMP280;54076;50.322;18.650;2023-05-15T02:46:11;97122.27;;;8.41
47484;BMP280;54076;50.322;18.650;2023-05-15T02:51:14;97114.15;;;8.43
47484;BMP280;54076;50.322;18.650;2023-05-15T02:56:15;97112.36;;;8.40
47484;BMP280;54076;50.322;18.650;2023-05-15T03:01:16;97102.38;;;8.38
47484;BMP280;54076;50.322;18.650;2023-05-15T03:06:17;97100.88;;;8.47
47484;BMP280;54076;50.322;18.650;2023-05-15T03:11:18;97096.70;;;8.43
47484;BMP280;54076;50.322;18.650;2023-05-15T03:16:20;97088.36;;;8.39
47484;BMP280;54076;50.322;18.650;2023-05-15T03:21:21;97096.67;;;8.38
47484;BMP280;54076;50.322;18.650;2023-05-15T03:26:22;97087.45;;;8.40
47484;BMP280;54076;50.322;18.650;2023-05-15T03:31:23;97085.54;;;8.45
47484;BMP280;54076;50.322;18.650;2023-05-15T03:36:24;97084.09;;;8.47
47484;BMP280;54076;50.322;18.650;2023-05-15T03:41:25;97074.16;;;8.47
47484;BMP280;54076;50.322;18.650;2023-05-15T03:46:27;97066.74;;;8.47
47484;BMP280;54076;50.322;18.650;2023-05-15T03:51:28;97059.56;;;8.45
47484;BMP280;54076;50.322;18.650;2023-05-15T03:56:30;97057.75;;;8.49
47484;BMP280;54076;50.322;18.650;2023-05-15T04:01:32;97051.55;;;8.48
47484;BMP280;54076;50.322;18.650;2023-05-15T04:06:32;97048.79;;;8.54
47484;BMP280;54076;50.322;18.650;2023-05-15T04:11:33;97052.57;;;8.36
47484;BMP280;54076;50.322;18.650;2023-05-15T04:16:35;97053.38;;;8.33
47484;BMP280;54076;50.322;18.650;2023-05-15T04:21:36;97057.08;;;8.31
47484;BMP280;54076;50.322;18.650;2023-05-15T04:26:37;97061.70;;;8.29
47484;BMP280;54076;50.322;18.650;2023-05-15T04:31:38;97059.95;;;8.36
47484;BMP280;54076;50.322;18.650;2023-05-15T04:36:39;97052.21;;;8.34
47484;BMP280;54076;50.322;18.650;2023-05-15T04:41:41;97046.17;;;8.39
47484;BMP280;54076;50.322;18.650;2023-05-15T04:46:42;97040.33;;;8.44
47484;BMP280;54076;50.322;18.650;2023-05-15T04:51:43;97039.08;;;8.47
47484;BMP280;54076;50.322;18.650;2023-05-15T04:56:44;97025.77;;;8.51
47484;BMP280;54076;50.322;18.650;2023-05-15T05:01:45;97023.44;;;8.55
47484;BMP280;54076;50.322;18.650;2023-05-15T05:06:46;97023.85;;;8.56
47484;BMP280;54076;50.322;18.650;2023-05-15T05:11:47;97021.47;;;8.70
47484;BMP280;54076;50.322;18.650;2023-05-15T05:16:48;97017.92;;;8.68
47484;BMP280;54076;50.322;18.650;2023-05-15T05:21:49;97007.02;;;8.63
47484;BMP280;54076;50.322;18.650;2023-05-15T05:26:50;97004.73;;;8.65
47484;BMP280;54076;50.322;18.650;2023-05-15T05:31:51;97000.79;;;8.65
47484;BMP280;54076;50.322;18.650;2023-05-15T05:36:52;97002.91;;;8.71
47484;BMP280;54076;50.322;18.650;2023-05-15T05:41:53;97004.38;;;8.84
47484;BMP280;54076;50.322;18.650;2023-05-15T05:46:54;97007.53;;;8.94
47484;BMP280;54076;50.322;18.650;2023-05-15T05:51:55;97003.40;;;9.13
47484;BMP280;54076;50.322;18.650;2023-05-15T05:56:56;97004.23;;;9.03
47484;BMP280;54076;50.322;18.650;2023-05-15T06:01:57;96996.71;;;8.89
47484;BMP280;54076;50.322;18.650;2023-05-15T06:06:58;96997.48;;;8.94
47484;BMP280;54076;50.322;18.650;2023-05-15T06:11:59;96997.94;;;9.02
47484;BMP280;54076;50.322;18.650;2023-05-15T06:17:04;96993.54;;;8.94
47484;BMP280;54076;50.322;18.650;2023-05-15T06:22:05;96990.80;;;8.90
47484;BMP280;54076;50.322;18.650;2023-05-15T06:27:06;96988.13;;;9.05
47484;BMP280;54076;50.322;18.650;2023-05-15T06:32:08;96985.45;;;9.10
47484;BMP280;54076;50.322;18.650;2023-05-15T06:37:10;96982.63;;;9.13
47484;BMP280;54076;50.322;18.650;2023-05-15T06:42:11;96984.05;;;9.14
47484;BMP280;54076;50.322;18.650;2023-05-15T06:47:15;96983.05;;;9.11
47484;BMP280;54076;50.322;18.650;2023-05-15T06:52:16;96980.34;;;9.18
47484;BMP280;54076;50.322;18.650;2023-05-15T06:57:18;96981.38;;;9.18
47484;BMP280;54076;50.322;18.650;2023-05-15T07:02:19;96981.54;;;9.19
47484;BMP280;54076;50.322;18.650;2023-05-15T07:07:20;96979.77;;;9.28
47484;BMP280;54076;50.322;18.650;2023-05-15T07:12:21;96981.77;;;9.35
47484;BMP280;54076;50.322;18.650;2023-05-15T07:17:22;96983.06;;;9.22
47484;BMP280;54076;50.322;18.650;2023-05-15T07:22:26;96981.27;;;9.30
47484;BMP280;54076;50.322;18.650;2023-05-15T07:27:27;96979.48;;;9.47
47484;BMP280;54076;50.322;18.650;2023-05-15T07:32:29;96978.84;;;9.43
47484;BMP280;54076;50.322;18.650;2023-05-15T07:37:30;96974.83;;;9.45
47484;BMP280;54076;50.322;18.650;2023-05-15T07:42:31;96967.73;;;9.64
47484;BMP280;54076;50.322;18.650;2023-05-15T07:47:32;96971.94;;;9.77
47484;BMP280;54076;50.322;18.650;2023-05-15T07:52:33;96976.27;;;9.73
47484;BMP280;54076;50.322;18.650;2023-05-15T07:57:35;96965.66;;;9.72
47484;BMP280;54076;50.322;18.650;2023-05-15T08:02:36;96971.54;;;9.75
47484;BMP280;54076;50.322;18.650;2023-05-15T08:07:37;96975.19;;;9.76
47484;BMP280;54076;50.322;18.650;2023-05-15T08:12:38;96977.59;;;9.73
47484;BMP280;54076;50.322;18.650;2023-05-15T08:17:45;96981.40;;;9.80
47484;BMP280;54076;50.322;18.650;2023-05-15T08:22:46;96982.59;;;9.92
47484;BMP280;54076;50.322;18.650;2023-05-15T08:27:47;96984.72;;;9.98
47484;BMP280;54076;50.322;18.650;2023-05-15T08:32:48;96988.15;;;9.80
47484;BMP280;54076;50.322;18.650;2023-05-15T08:37:49;96979.30;;;9.50
47484;BMP280;54076;50.322;18.650;2023-05-15T08:43:00;96981.73;;;9.44
47484;BMP280;54076;50.322;18.650;2023-05-15T08:48:08;96982.90;;;9.30
47484;BMP280;54076;50.322;18.650;2023-05-15T08:53:11;96988.73;;;9.41
47484;BMP280;54076;50.322;18.650;2023-05-15T08:58:13;96989.83;;;9.34
47484;BMP280;54076;50.322;18.650;2023-05-15T09:03:16;96986.75;;;9.42
47484;BMP280;54076;50.322;18.650;2023-05-15T09:08:21;96987.71;;;9.47
47484;BMP280;54076;50.322;18.650;2023-05-15T09:13:22;96990.44;;;9.60
47484;BMP280;54076;50.322;18.650;2023-05-15T09:18:24;96994.34;;;9.56
47484;BMP280;54076;50.322;18.650;2023-05-15T09:23:26;96999.06;;;9.44
47484;BMP280;54076;50.322;18.650;2023-05-15T09:28:30;96998.60;;;9.50
47484;BMP280;54076;50.322;18.650;2023-05-15T09:33:37;96996.60;;;9.53
47484;BMP280;54076;50.322;18.650;2023-05-15T09:38:41;97001.06;;;9.66
47484;BMP280;54076;50.322;18.650;2023-05-15T09:43:42;96996.02;;;9.60
47484;BMP280;54076;50.322;18.650;2023-05-15T09:48:43;97002.43;;;9.44
47484;BMP280;54076;50.322;18.650;2023-05-15T09:53:49;97007.70;;;9.27
47484;BMP280;54076;50.322;18.650;2023-05-15T09:58:57;97019.05;;;9.67
47484;BMP280;54076;50.322;18.650;2023-05-15T10:03:59;97012.23;;;9.73
47484;BMP280;54076;50.322;18.650;2023-05-15T10:09:02;97005.02;;;10.01
47484;BMP280;54076;50.322;18.650;2023-05-15T10:14:08;97015.48;;;9.97
47484;BMP280;54076;50.322;18.650;2023-05-15T10:19:12;97017.17;;;10.96
47484;BMP280;54076;50.322;18.650;2023-05-15T10:24:15;97017.14;;;11.41
47484;BMP280;54076;50.322;18.650;2023-05-15T10:29:18;97023.36;;;11.24
47484;BMP280;54076;50.322;18.650;2023-05-15T10:34:21;97011.27;;;10.68
47484;BMP280;54076;50.322;18.650;2023-05-15T10:39:24;97019.14;;;10.46
47484;BMP280;54076;50.322;18.650;2023-05-15T10:44:27;97022.90;;;10.26
47484;BMP280;54076;50.322;18.650;2023-05-15T10:49:28;97015.87;;;10.32
47484;BMP280;54076;50.322;18.650;2023-05-15T10:54:29;97025.34;;;11.66
47484;BMP280;54076;50.322;18.650;2023-05-15T10:59:31;97025.79;;;12.26
47484;BMP280;54076;50.322;18.650;2023-05-15T11:04:33;97001.01;;;12.61
47484;BMP280;54076;50.322;18.650;2023-05-15T11:09:36;97026.12;;;13.51
47484;BMP280;54076;50.322;18.650;2023-05-15T11:15:24;97010.48;;;13.60
47484;BMP280;54076;50.322;18.650;2023-05-15T11:20:00;96990.27;;;13.75
47484;BMP280;54076;50.322;18.650;2023-05-15T11:25:10;96984.15;;;13.88
47484;BMP280;54076;50.322;18.650;2023-05-15T11:30:21;96979.85;;;13.15
47484;BMP280;54076;50.322;18.650;2023-05-15T11:46:09;96961.92;;;13.50
47484;BMP280;54076;50.322;18.650;2023-05-15T11:51:22;96944.31;;;13.27
47484;BMP280;54076;50.322;18.650;2023-05-15T11:56:26;96940.64;;;12.98
47484;BMP280;54076;50.322;18.650;2023-05-15T12:01:44;96947.04;;;13.02
47484;BMP280;54076;50.322;18.650;2023-05-15T12:06:48;96963.56;;;13.92
47484;BMP280;54076;50.322;18.650;2023-05-15T12:11:53;96955.44;;;14.66
47484;BMP280;54076;50.322;18.650;2023-05-15T12:17:01;96942.67;;;14.29
47484;BMP280;54076;50.322;18.650;2023-05-15T12:22:04;96946.91;;;13.93
47484;BMP280;54076;50.322;18.650;2023-05-15T12:27:07;96931.22;;;13.49
47484;BMP280;54076;50.322;18.650;2023-05-15T12:32:09;96937.48;;;12.81
47484;BMP280;54076;50.322;18.650;2023-05-15T12:37:13;96939.58;;;12.54
47484;BMP280;54076;50.322;18.650;2023-05-15T12:42:14;96934.60;;;12.37
47484;BMP280;54076;50.322;18.650;2023-05-15T12:47:23;96942.23;;;12.23
47484;BMP280;54076;50.322;18.650;2023-05-15T12:52:28;96955.48;;;12.98
47484;BMP280;54076;50.322;18.650;2023-05-15T12:57:29;96959.42;;;14.23
47484;BMP280;54076;50.322;18.650;2023-05-15T13:02:30;96949.74;;;13.83
47484;BMP280;54076;50.322;18.650;2023-05-15T13:07:31;96953.34;;;14.44
47484;BMP280;54076;50.322;18.650;2023-05-15T13:12:41;96950.17;;;14.46
47484;BMP280;54076;50.322;18.650;2023-05-15T13:17:44;96941.39;;;14.38
47484;BMP280;54076;50.322;18.650;2023-05-15T13:22:45;96948.73;;;13.88
47484;BMP280;54076;50.322;18.650;2023-05-15T13:27:46;96954.56;;;14.36
47484;BMP280;54076;50.322;18.650;2023-05-15T13:32:48;96948.18;;;14.91
47484;BMP280;54076;50.322;18.650;2023-05-15T13:37:49;96954.30;;;15.18
47484;BMP280;54076;50.322;18.650;2023-05-15T13:42:50;96938.98;;;14.19
47484;BMP280;54076;50.322;18.650;2023-05-15T13:47:51;96946.36;;;13.73
47484;BMP280;54076;50.322;18.650;2023-05-15T13:52:52;96940.85;;;14.32
47484;BMP280;54076;50.322;18.650;2023-05-15T13:57:54;96943.23;;;13.45
47484;BMP280;54076;50.322;18.650;2023-05-15T14:02:55;96935.70;;;13.11
47484;BMP280;54076;50.322;18.650;2023-05-15T14:07:56;96947.67;;;13.30
47484;BMP280;54076;50.322;18.650;2023-05-15T14:12:57;96950.02;;;12.93
47484;BMP280;54076;50.322;18.650;2023-05-15T14:17:58;96955.58;;;12.62
47484;BMP280;54076;50.322;18.650;2023-05-15T14:22:59;96964.40;;;13.56
47484;BMP280;54076;50.322;18.650;2023-05-15T14:28:00;96965.31;;;13.24
47484;BMP280;54076;50.322;18.650;2023-05-15T14:33:01;96974.11;;;13.06
47484;BMP280;54076;50.322;18.650;2023-05-15T14:38:02;96976.02;;;12.64
47484;BMP280;54076;50.322;18.650;2023-05-15T14:43:03;96990.80;;;12.13
47484;BMP280;54076;50.322;18.650;2023-05-15T14:48:04;97006.02;;;11.92
47484;BMP280;54076;50.322;18.650;2023-05-15T14:53:05;96995.79;;;11.57
47484;BMP280;54076;50.322;18.650;2023-05-15T14:58:06;96994.58;;;11.26
47484;BMP280;54076;50.322;18.650;2023-05-15T15:03:10;96990.80;;;11.53
47484;BMP280;54076;50.322;18.650;2023-05-15T15:08:11;96992.37;;;11.50
47484;BMP280;54076;50.322;18.650;2023-05-15T15:13:12;96992.84;;;11.57
47484;BMP280;54076;50.322;18.650;2023-05-15T15:18:13;96993.56;;;11.45
47484;BMP280;54076;50.322;18.650;2023-05-15T15:23:14;96996.66;;;11.16
47484;BMP280;54076;50.322;18.650;2023-05-15T15:28:15;96986.87;;;11.48
47484;BMP280;54076;50.322;18.650;2023-05-15T15:33:16;97015.63;;;13.93
47484;BMP280;54076;50.322;18.650;2023-05-15T15:38:17;97008.64;;;14.29
47484;BMP280;54076;50.322;18.650;2023-05-15T15:43:18;97002.55;;;14.13
47484;BMP280;54076;50.322;18.650;2023-05-15T15:48:19;97029.11;;;14.27
47484;BMP280;54076;50.322;18.650;2023-05-15T15:53:21;97004.55;;;14.77
47484;BMP280;54076;50.322;18.650;2023-05-15T15:58:22;97015.38;;;15.95
47484;BMP280;54076;50.322;18.650;2023-05-15T16:03:23;97007.96;;;16.04
47484;BMP280;54076;50.322;18.650;2023-05-15T16:08:24;97015.56;;;16.39
47484;BMP280;54076;50.322;18.650;2023-05-15T16:13:25;97004.96;;;13.97
47484;BMP280;54076;50.322;18.650;2023-05-15T16:18:26;97012.41;;;14.80
47484;BMP280;54076;50.322;18.650;2023-05-15T16:23:27;97017.08;;;16.02
47484;BMP280;54076;50.322;18.650;2023-05-15T16:28:33;97028.23;;;17.69
47484;BMP280;54076;50.322;18.650;2023-05-15T16:33:34;97026.75;;;17.26
47484;BMP280;54076;50.322;18.650;2023-05-15T16:38:35;97008.48;;;14.06
47484;BMP280;54076;50.322;18.650;2023-05-15T16:43:36;97017.54;;;12.21
47484;BMP280;54076;50.322;18.650;2023-05-15T16:48:38;97022.31;;;11.63
47484;BMP280;54076;50.322;18.650;2023-05-15T16:53:38;97026.32;;;11.26
47484;BMP280;54076;50.322;18.650;2023-05-15T16:58:40;97029.64;;;11.07
47484;BMP280;54076;50.322;18.650;2023-05-15T17:03:42;97038.41;;;10.73
47484;BMP280;54076;50.322;18.650;2023-05-15T17:08:43;97035.02;;;10.66
47484;BMP280;54076;50.322;18.650;2023-05-15T17:13:46;97070.95;;;9.81
47484;BMP280;54076;50.322;18.650;2023-05-15T17:18:47;97074.55;;;9.37
47484;BMP280;54076;50.322;18.650;2023-05-15T17:23:50;97068.61;;;9.08
47484;BMP280;54076;50.322;18.650;2023-05-15T17:28:52;97075.15;;;8.81
47484;BMP280;54076;50.322;18.650;2023-05-15T17:33:53;97078.10;;;8.75
47484;BMP280;54076;50.322;18.650;2023-05-15T17:38:55;97087.42;;;8.80
47484;BMP280;54076;50.322;18.650;2023-05-15T17:43:56;97108.98;;;10.21
47484;BMP280;54076;50.322;18.650;2023-05-15T17:48:57;97126.55;;;12.97
47484;BMP280;54076;50.322;18.650;2023-05-15T17:53:58;97124.70;;;14.05
47484;BMP280;54076;50.322;18.650;2023-05-15T17:58:59;97120.70;;;11.23
47484;BMP280;54076;50.322;18.650;2023-05-15T18:04:00;97133.84;;;13.01
47484;BMP280;54076;50.322;18.650;2023-05-15T18:09:01;97131.83;;;10.85
47484;BMP280;54076;50.322;18.650;2023-05-15T18:14:02;97137.64;;;11.53
47484;BMP280;54076;50.322;18.650;2023-05-15T18:19:03;97141.26;;;11.67
47484;BMP280;54076;50.322;18.650;2023-05-15T18:24:05;97142.36;;;10.38
47484;BMP280;54076;50.322;18.650;2023-05-15T18:29:06;97137.52;;;9.54
47484;BMP280;54076;50.322;18.650;2023-05-15T18:34:07;97149.21;;;9.64
47484;BMP280;54076;50.322;18.650;2023-05-15T18:39:08;97149.46;;;9.46
47484;BMP280;54076;50.322;18.650;2023-05-15T18:44:09;97162.96;;;9.23
47484;BMP280;54076;50.322;18.650;2023-05-15T18:49:10;97173.54;;;9.19
47484;BMP280;54076;50.322;18.650;2023-05-15T18:54:11;97178.74;;;9.16
47484;BMP280;54076;50.322;18.650;2023-05-15T18:59:12;97193.68;;;9.03
47484;BMP280;54076;50.322;18.650;2023-05-15T19:04:13;97195.02;;;8.74
47484;BMP280;54076;50.322;18.650;2023-05-15T19:09:15;97197.85;;;8.80
47484;BMP280;54076;50.322;18.650;2023-05-15T19:14:19;97198.79;;;8.85
47484;BMP280;54076;50.322;18.650;2023-05-15T19:19:20;97212.33;;;8.79
47484;BMP280;54076;50.322;18.650;2023-05-15T19:24:21;97219.42;;;8.89
47484;BMP280;54076;50.322;18.650;2023-05-15T19:29:22;97223.76;;;8.94
47484;BMP280;54076;50.322;18.650;2023-05-15T19:34:23;97224.48;;;8.97
47484;BMP280;54076;50.322;18.650;2023-05-15T19:39:24;97226.56;;;9.02
47484;BMP280;54076;50.322;18.650;2023-05-15T19:44:25;97220.67;;;8.95
47484;BMP280;54076;50.322;18.650;2023-05-15T19:49:26;97214.93;;;8.97
47484;BMP280;54076;50.322;18.650;2023-05-15T19:54:27;97218.45;;;9.11
47484;BMP280;54076;50.322;18.650;2023-05-15T19:59:28;97217.64;;;8.98
47484;BMP280;54076;50.322;18.650;2023-05-15T20:04:29;97217.94;;;8.76
47484;BMP280;54076;50.322;18.650;2023-05-15T20:09:32;97209.85;;;8.81
47484;BMP280;54076;50.322;18.650;2023-05-15T20:14:33;97216.34;;;8.76
47484;BMP280;54076;50.322;18.650;2023-05-15T20:19:34;97212.33;;;8.70
47484;BMP280;54076;50.322;18.650;2023-05-15T20:24:35;97217.79;;;8.52
47484;BMP280;54076;50.322;18.650;2023-05-15T20:29:37;97225.36;;;8.52
47484;BMP280;54076;50.322;18.650;2023-05-15T20:34:38;97231.78;;;8.48
47484;BMP280;54076;50.322;18.650;2023-05-15T20:39:41;97226.55;;;8.40
47484;BMP280;54076;50.322;18.650;2023-05-15T20:44:42;97230.20;;;8.36
47484;BMP280;54076;50.322;18.650;2023-05-15T20:49:43;97233.09;;;8.26
47484;BMP280;54076;50.322;18.650;2023-05-15T20:54:44;97239.70;;;8.32
47484;BMP280;54076;50.322;18.650;2023-05-15T20:59:45;97242.12;;;8.42
47484;BMP280;54076;50.322;18.650;2023-05-15T21:04:46;97239.71;;;8.31
47484;BMP280;54076;50.322;18.650;2023-05-15T21:09:47;97247.09;;;8.31
47484;BMP280;54076;50.322;18.650;2023-05-15T21:14:48;97244.61;;;7.95
47484;BMP280;54076;50.322;18.650;2023-05-15T21:19:49;97251.52;;;8.11
47484;BMP280;54076;50.322;18.650;2023-05-15T21:24:50;97251.73;;;7.86
47484;BMP280;54076;50.322;18.650;2023-05-15T21:29:51;97246.35;;;7.85
47484;BMP280;54076;50.322;18.650;2023-05-15T21:34:52;97246.02;;;7.79
47484;BMP280;54076;50.322;18.650;2023-05-15T21:39:53;97247.80;;;7.70
47484;BMP280;54076;50.322;18.650;2023-05-15T21:44:54;97250.79;;;7.75
47484;BMP280;54076;50.322;18.650;2023-05-15T21:49:55;97252.30;;;7.61
47484;BMP280;54076;50.322;18.650;2023-05-15T21:54:56;97260.77;;;7.63
47484;BMP280;54076;50.322;18.650;2023-05-15T21:59:57;97263.39;;;7.64
47484;BMP280;54076;50.322;18.650;2023-05-15T22:04:58;97273.14;;;7.60
